Time;durP1;ratioP1;P1;durP2;ratioP2;P2;SDS_P1;SDS_P2;PMS_P1;PMS_P2;Temp;Humidity;BMP_temperature;BMP_pressure;BME280_temperature;BME280_humidity;BME280_pressure;Samples;Min_cycle;Max_cycle;Signal;HPM_P1;HPM_P2
2023/05/30 00:00:27;;;;;;;7.82;2.25;;;;;;;10.20;70.36;102557.13;5052166;28;20104;-84
2023/05/30 00:02:52;;;;;;;;;;;;;;;10.21;67.70;102565.81;5051355;28;20025;-85
2023/05/30 00:05:17;;;;;;;6.87;2.20;;;;;;;10.20;67.76;102564.06;5052142;28;19920;-84
2023/05/30 00:07:43;;;;;;;4.67;1.93;;;;;;;10.19;66.06;102565.75;5051176;28;20106;-84
2023/05/30 00:10:08;;;;;;;4.77;1.83;;;;;;;10.18;70.64;102565.75;5051372;28;20017;-85
2023/05/30 00:12:35;;;;;;;7.13;2.10;;;;;;;10.12;71.44;102570.88;5051846;28;20021;-84
2023/05/30 00:15:01;;;;;;;7.90;2.22;;;;;;;10.09;71.41;102570.81;5052558;28;20430;-84
2023/05/30 00:17:26;;;;;;;6.07;2.20;;;;;;;10.04;69.66;102574.19;5051570;28;20052;-85
2023/05/30 00:19:54;;;;;;;6.67;2.10;;;;;;;10.03;69.78;102575.06;5051779;28;20358;-84
2023/05/30 00:22:20;;;;;;;5.68;1.90;;;;;;;9.99;70.16;102570.69;5051395;28;20228;-84
2023/05/30 00:24:46;;;;;;;3.85;1.80;;;;;;;9.96;72.19;102569.78;5052006;28;20104;-85
2023/05/30 00:27:13;;;;;;;6.57;2.10;;;;;;;9.91;71.88;102569.66;5070216;28;20119;-85
2023/05/30 00:29:38;;;;;;;8.65;2.42;;;;;;;9.83;72.19;102571.28;5070647;28;20039;-85
2023/05/30 00:32:04;;;;;;;12.67;2.60;;;;;;;9.74;73.52;102572.91;5071945;28;20024;-85
2023/05/30 00:34:29;;;;;;;4.97;2.00;;;;;;;9.74;73.21;102572.00;5071664;28;20428;-85
2023/05/30 00:36:54;;;;;;;6.47;2.30;;;;;;;9.69;72.88;102571.06;5071352;28;20100;-84
2023/05/30 00:39:20;;;;;;;9.63;2.30;;;;;;;9.66;72.83;102571.91;5072137;28;20431;-85
2023/05/30 00:41:45;;;;;;;4.10;2.00;;;;;;;9.68;72.72;102577.09;5073500;28;20115;-86
2023/05/30 00:44:10;;;;;;;5.53;1.87;;;;;;;9.65;72.74;102572.75;5074987;28;20028;-85
2023/05/30 00:46:36;;;;;;;6.67;2.30;;;;;;;9.60;73.65;102576.97;5066276;28;20025;-85
2023/05/30 00:49:02;;;;;;;6.43;2.03;;;;;;;9.58;73.27;102582.16;5055351;28;20112;-85
2023/05/30 00:51:28;;;;;;;6.90;2.35;;;;;;;9.52;76.05;102579.44;5055110;28;20020;-84
2023/05/30 00:53:55;;;;;;;8.38;2.50;;;;;;;9.53;74.47;102576.00;5055440;28;20330;-85
2023/05/30 00:56:23;;;;;;;8.23;2.40;;;;;;;9.48;76.72;102581.94;5067509;28;20032;-86
2023/05/30 00:58:49;;;;;;;9.95;2.70;;;;;;;9.42;77.33;102574.94;5074718;28;20033;-85
2023/05/30 01:01:14;;;;;;;5.25;2.20;;;;;;;9.39;77.11;102580.09;5075538;28;20024;-85
2023/05/30 01:03:40;;;;;;;8.83;2.33;;;;;;;9.40;77.51;102585.28;5075154;28;20400;-85
2023/05/30 01:06:06;;;;;;;10.73;2.33;;;;;;;9.33;76.72;102578.25;5074902;28;20102;-84
2023/05/30 01:08:32;;;;;;;4.77;2.10;;;;;;;9.32;77.01;102581.69;5075068;28;20076;-85
2023/05/30 01:11:15;;;;;;;5.13;1.80;;;;;;;9.34;77.45;102574.81;5075395;28;20444;-84
2023/05/30 01:14:06;;;;;;;4.95;1.90;;;;;;;9.34;75.39;102576.53;5074402;28;20161;-84
2023/05/30 01:16:39;;;;;;;4.03;1.83;;;;;;;9.35;74.78;102579.13;5075114;28;20029;-86
2023/05/30 01:19:23;;;;;;;2.55;1.63;;;;;;;9.34;75.47;102571.34;5074598;28;20049;-86
2023/05/30 01:21:59;;;;;;;6.40;2.00;;;;;;;9.34;76.71;102584.31;5074770;28;20028;-85
2023/05/30 01:24:36;;;;;;;6.38;1.92;;;;;;;9.29;77.25;102575.59;5075091;28;20075;-85
2023/05/30 01:27:36;;;;;;;3.60;1.92;;;;;;;9.23;77.24;102572.03;5056548;28;20025;-85
2023/05/30 01:30:02;;;;;;;7.38;2.15;;;;;;;9.14;77.02;102563.22;5054919;28;20029;-85
2023/05/30 01:32:27;;;;;;;6.97;2.05;;;;;;;9.19;76.08;102577.13;5055046;28;20111;-85
2023/05/30 01:34:53;;;;;;;5.03;2.00;;;;;;;9.19;76.94;102572.81;5053610;28;20112;-85
2023/05/30 01:37:18;;;;;;;4.87;2.17;;;;;;;9.18;75.25;102580.56;5054646;28;20044;-86
2023/05/30 01:39:44;;;;;;;5.77;2.40;;;;;;;9.14;78.68;102578.75;5053942;28;20061;-84
2023/05/30 01:42:16;;;;;;;11.70;2.60;;;;;;;9.11;79.53;102583.06;5054730;28;20053;-85
2023/05/30 01:44:53;;;;;;;7.68;2.40;;;;;;;9.09;78.17;102584.75;5054487;28;20477;-85
2023/05/30 01:47:21;;;;;;;4.43;1.80;;;;;;;9.09;76.82;102583.84;5053836;28;20033;-84
2023/05/30 01:49:59;;;;;;;4.97;1.83;;;;;;;9.10;75.75;102588.19;5054125;28;20037;-84
2023/05/30 01:52:31;;;;;;;4.65;2.20;;;;;;;9.07;79.52;102596.78;5054228;28;20078;-84
2023/05/30 01:54:58;;;;;;;4.53;2.20;;;;;;;9.08;76.34;102598.53;5053718;28;20021;-84
2023/05/30 01:57:25;;;;;;;5.68;2.08;;;;;;;9.06;76.19;102599.34;5054400;28;20108;-85
2023/05/30 01:59:53;;;;;;;2.70;1.52;;;;;;;9.09;76.20;102607.16;5053535;28;20021;-85
2023/05/30 02:02:18;;;;;;;5.13;2.00;;;;;;;9.08;79.01;102605.41;5053469;28;20381;-85
2023/05/30 02:04:43;;;;;;;3.23;1.70;;;;;;;9.05;77.37;102602.78;5054248;28;20029;-84
2023/05/30 02:07:09;;;;;;;6.67;2.30;;;;;;;8.99;79.40;102598.34;5054114;28;20424;-85
2023/05/30 02:09:34;;;;;;;4.50;2.00;;;;;;;8.96;77.38;102598.28;5055592;28;20040;-84
2023/05/30 02:12:01;;;;;;;3.30;1.73;;;;;;;9.02;77.63;102608.75;5072098;28;20061;-85
2023/05/30 02:14:26;;;;;;;;;;;;;;;8.94;80.29;102610.31;5074314;28;20028;-84
2023/05/30 02:16:52;;;;;;;9.43;2.60;;;;;;;8.88;79.31;102615.41;5073048;28;19920;-84
2023/05/30 02:19:18;;;;;;;6.43;2.63;;;;;;;8.85;79.21;102610.16;5074142;28;20105;-84
2023/05/30 02:21:43;;;;;;;8.67;2.47;;;;;;;8.81;79.07;102612.66;5073791;28;20028;-84
2023/05/30 02:24:08;;;;;;;8.00;2.40;;;;;;;8.79;78.25;102619.53;5072783;28;20043;-85
2023/05/30 02:26:35;;;;;;;7.20;2.57;;;;;;;8.79;80.42;102616.94;5059303;28;20108;-84
2023/05/30 02:29:00;;;;;;;7.72;2.10;;;;;;;8.80;80.07;102620.41;5052268;28;20044;-85
2023/05/30 02:31:26;;;;;;;4.50;2.10;;;;;;;8.81;78.42;102617.84;5054144;28;20025;-85
2023/05/30 02:33:51;;;;;;;2.93;1.80;;;;;;;8.81;79.97;102617.84;5053311;28;20517;-85
2023/05/30 02:36:16;;;;;;;9.60;2.90;;;;;;;8.76;80.32;102600.47;5053049;28;20477;-84
2023/05/30 02:38:42;;;;;;;7.33;2.50;;;;;;;8.71;81.49;102610.72;5053428;28;20469;-85
2023/05/30 02:41:07;;;;;;;7.30;2.10;;;;;;;8.65;79.78;102611.47;5053807;28;20025;-85
2023/05/30 02:43:32;;;;;;;12.00;2.80;;;;;;;8.62;82.77;102615.72;5052700;28;20121;-84
2023/05/30 02:46:00;;;;;;;8.27;2.60;;;;;;;8.57;81.66;102614.72;5054265;28;20021;-85
2023/05/30 02:48:25;;;;;;;5.32;2.60;;;;;;;8.61;79.75;102619.16;5053061;28;20485;-84
2023/05/30 02:50:51;;;;;;;6.23;2.10;;;;;;;8.63;80.82;102612.28;5052295;28;20059;-85
2023/05/30 02:53:16;;;;;;;3.87;2.30;;;;;;;8.67;77.77;102606.31;5052958;28;20488;-84
2023/05/30 02:55:42;;;;;;;3.83;1.90;;;;;;;8.65;78.47;102610.63;5054057;28;20044;-84
2023/05/30 02:58:08;;;;;;;3.00;1.70;;;;;;;8.70;78.79;102619.34;5052116;28;20052;-85
2023/05/30 03:00:34;;;;;;;3.13;1.80;;;;;;;8.70;77.45;102600.34;5052684;28;20025;-84
2023/05/30 03:02:59;;;;;;;5.50;2.00;;;;;;;8.72;77.84;102604.72;5053349;28;20102;-84
2023/05/30 03:05:25;;;;;;;2.43;1.73;;;;;;;8.71;77.18;102602.97;5051390;28;20017;-84
2023/05/30 03:07:51;;;;;;;4.93;1.90;;;;;;;8.70;78.64;102600.34;5052434;28;20037;-85
2023/05/30 03:10:17;;;;;;;5.18;2.03;;;;;;;8.65;79.27;102606.31;5053276;28;20410;-86
2023/05/30 03:12:42;;;;;;;4.17;1.90;;;;;;;8.64;80.56;102606.28;5051893;28;20017;-84
2023/05/30 03:15:09;;;;;;;9.63;2.63;;;;;;;8.55;80.54;102600.91;5053029;28;20029;-85
2023/05/30 03:17:34;;;;;;;7.75;2.58;;;;;;;8.55;81.59;102608.69;5052864;28;20412;-85
2023/05/30 03:20:00;;;;;;;7.50;2.37;;;;;;;8.56;80.52;102618.16;5051855;28;20028;-84
2023/05/30 03:22:25;;;;;;;4.90;2.47;;;;;;;8.54;81.40;102617.28;5052808;28;20025;-84
2023/05/30 03:24:50;;;;;;;5.67;2.50;;;;;;;8.57;80.88;102620.81;5052473;28;20053;-85
2023/05/30 03:27:16;;;;;;;9.43;2.60;;;;;;;8.56;80.62;102619.06;5051990;28;20120;-85
2023/05/30 03:29:45;;;;;;;3.37;2.10;;;;;;;8.58;79.67;102627.72;5049691;28;20025;-85
2023/05/30 03:32:10;;;;;;;5.28;2.20;;;;;;;8.59;80.21;102634.66;5052334;28;20095;-85
2023/05/30 03:34:41;;;;;;;4.77;1.97;;;;;;;8.61;79.71;102632.94;5052182;28;20485;-85
2023/05/30 03:37:07;;;;;;;4.45;1.92;;;;;;;8.63;82.82;102633.84;5052976;28;20033;-84
2023/05/30 03:39:32;;;;;;;5.60;2.50;;;;;;;8.60;82.40;102632.94;5051272;28;20480;-85
2023/05/30 03:41:57;;;;;;;8.95;3.15;;;;;;;8.61;80.30;102637.25;5052712;28;20033;-85
2023/05/30 03:44:23;;;;;;;6.33;2.33;;;;;;;8.66;80.69;102648.59;5052656;28;20032;-85
2023/05/30 03:46:48;;;;;;;11.30;3.20;;;;;;;8.62;83.48;102644.19;5051432;28;20033;-84
2023/05/30 03:49:13;;;;;;;10.27;2.90;;;;;;;8.66;81.21;102653.78;5052338;28;20064;-84
2023/05/30 03:51:39;;;;;;;8.70;2.47;;;;;;;8.68;79.80;102652.06;5052366;28;20032;-84
2023/05/30 03:54:04;;;;;;;5.67;2.40;;;;;;;8.72;81.61;102650.44;5051372;28;20478;-84
2023/05/30 03:56:29;;;;;;;5.43;2.20;;;;;;;8.74;81.71;102654.81;5064132;28;20036;-84
2023/05/30 03:58:55;;;;;;;5.63;2.40;;;;;;;8.74;82.94;102660.00;5052936;28;20033;-86
2023/05/30 04:01:20;;;;;;;5.37;2.63;;;;;;;8.75;82.84;102653.97;5051371;28;20032;-85
2023/05/30 04:03:46;;;;;;;10.23;2.70;;;;;;;8.72;83.19;102653.03;5051606;28;20500;-85
2023/05/30 04:06:11;;;;;;;7.40;2.70;;;;;;;8.74;82.45;102649.63;5052253;28;20028;-85
2023/05/30 04:08:37;;;;;;;6.93;2.60;;;;;;;8.75;82.80;102653.97;5050576;28;20119;-85
2023/05/30 04:11:03;;;;;;;5.57;2.90;;;;;;;8.76;82.56;102652.25;5052176;28;20021;-85
2023/05/30 04:13:29;;;;;;;9.77;3.05;;;;;;;8.68;83.05;102646.91;5052200;28;20465;-86
2023/05/30 04:15:54;;;;;;;8.80;2.73;;;;;;;8.76;80.94;102657.41;5052293;28;20055;-84
2023/05/30 04:18:20;;;;;;;8.70;3.10;;;;;;;8.77;82.65;102656.59;5056220;28;20396;-85
2023/05/30 04:20:45;;;;;;;7.03;2.60;;;;;;;8.80;82.70;102652.34;5055894;28;20021;-85
2023/05/30 04:23:10;;;;;;;11.00;3.20;;;;;;;8.83;83.01;102650.66;5055451;28;20114;-85
2023/05/30 04:25:36;;;;;;;7.63;2.90;;;;;;;8.86;82.89;102649.00;5055880;28;20480;-85
2023/05/30 04:28:03;;;;;;;11.60;3.40;;;;;;;8.88;83.17;102643.88;5067059;28;20031;-85
2023/05/30 04:30:28;;;;;;;6.47;2.65;;;;;;;9.02;82.53;102655.38;5074820;28;20025;-85
2023/05/30 04:32:55;;;;;;;4.73;2.33;;;;;;;9.10;81.66;102656.44;5075967;28;20027;-85
2023/05/30 04:35:21;;;;;;;7.70;2.50;;;;;;;9.17;80.60;102649.66;5075783;28;20051;-84
2023/05/30 04:37:46;;;;;;;5.67;2.60;;;;;;;9.25;81.20;102649.78;5074936;28;20044;-84
2023/05/30 04:40:12;;;;;;;6.77;2.37;;;;;;;9.29;80.73;102648.13;5075868;28;20024;-85
2023/05/30 04:42:39;;;;;;;4.50;2.50;;;;;;;9.34;80.82;102657.75;5074206;28;20021;-85
2023/05/30 04:45:06;;;;;;;4.25;2.22;;;;;;;9.42;79.06;102655.28;5075652;28;20036;-85
2023/05/30 04:47:31;;;;;;;3.35;2.20;;;;;;;9.47;80.79;102657.94;5074484;28;20024;-86
2023/05/30 04:50:00;;;;;;;7.23;2.70;;;;;;;9.50;80.06;102652.84;5073310;28;20095;-84
2023/05/30 04:52:26;;;;;;;5.80;2.45;;;;;;;9.53;80.66;102656.34;5074930;28;20029;-83
2023/05/30 04:54:52;;;;;;;5.65;2.50;;;;;;;9.55;81.08;102651.22;5074924;28;20503;-83
2023/05/30 04:57:21;;;;;;;10.80;3.50;;;;;;;9.54;82.10;102654.66;5073053;28;20032;-84
2023/05/30 04:59:46;;;;;;;8.85;3.00;;;;;;;9.55;81.42;102649.47;5074589;28;20032;-85
2023/05/30 05:02:12;;;;;;;9.83;3.17;;;;;;;9.61;81.83;102655.63;5075539;28;20028;-84
2023/05/30 05:04:37;;;;;;;9.40;3.50;;;;;;;9.64;81.83;102653.97;5074252;28;20017;-79
2023/05/30 05:07:03;;;;;;;7.20;3.00;;;;;;;9.62;81.77;102645.28;5075130;28;20100;-79
2023/05/30 05:09:28;;;;;;;9.97;3.13;;;;;;;9.68;80.30;102654.88;5075106;28;20108;-80
2023/05/30 05:11:54;;;;;;;8.40;3.10;;;;;;;9.70;80.96;102650.59;5074373;28;20031;-79
2023/05/30 05:14:19;;;;;;;10.70;3.50;;;;;;;9.74;80.90;102653.28;5075198;28;20353;-79
2023/05/30 05:16:45;;;;;;;9.17;3.40;;;;;;;9.74;80.56;102652.38;5074587;28;20362;-79
2023/05/30 05:19:10;;;;;;;10.00;3.53;;;;;;;9.80;80.54;102649.03;5074470;28;20115;-79
2023/05/30 05:21:36;;;;;;;5.40;2.83;;;;;;;9.88;80.45;102639.69;5074818;28;20027;-79
2023/05/30 05:24:02;;;;;;;5.85;3.03;;;;;;;9.96;80.42;102650.19;5075171;28;20047;-79
2023/05/30 05:26:27;;;;;;;9.40;3.00;;;;;;;10.04;78.59;102651.16;5074338;28;20022;-79
2023/05/30 05:28:53;;;;;;;9.63;3.00;;;;;;;10.08;80.41;102652.94;5071209;28;20030;-79
2023/05/30 05:31:18;;;;;;;10.80;3.87;;;;;;;10.10;80.20;102651.25;5074865;28;20035;-79
2023/05/30 05:33:43;;;;;;;11.80;3.60;;;;;;;10.09;79.71;102649.50;5073940;28;20017;-79
2023/05/30 05:36:08;;;;;;;11.07;3.63;;;;;;;10.17;79.80;102654.81;5074844;28;20496;-79
2023/05/30 05:38:34;;;;;;;9.20;3.40;;;;;;;10.18;78.98;102641.00;5074682;28;20025;-79
2023/05/30 05:40:59;;;;;;;8.97;3.33;;;;;;;10.24;78.91;102666.16;5074080;28;20033;-85
2023/05/30 05:43:25;;;;;;;11.20;3.60;;;;;;;10.22;79.39;102655.78;5074866;28;20048;-85
2023/05/30 05:45:51;;;;;;;9.50;3.70;;;;;;;10.25;78.66;102647.16;5073746;28;20108;-86
2023/05/30 05:48:19;;;;;;;14.85;5.00;;;;;;;10.24;79.02;102653.19;5074878;28;20078;-85
2023/05/30 05:50:44;;;;;;;16.55;4.60;;;;;;;10.21;79.37;102648.84;5074105;28;20103;-85
2023/05/30 05:53:10;;;;;;;14.17;4.20;;;;;;;10.24;78.67;102650.59;5073818;28;20574;-81
2023/05/30 05:55:38;;;;;;;12.23;4.20;;;;;;;10.28;78.83;102650.66;5074025;28;20033;-80
2023/05/30 05:58:03;;;;;;;10.95;3.90;;;;;;;10.33;78.55;102661.09;5072600;28;20399;-80
2023/05/30 06:00:29;;;;;;;12.93;4.50;;;;;;;10.30;78.90;102661.09;5073379;28;20032;-81
2023/05/30 06:02:55;;;;;;;12.70;4.50;;;;;;;10.25;78.31;102654.94;5074324;28;20032;-81
2023/05/30 06:05:20;;;;;;;14.47;4.83;;;;;;;10.27;78.30;102661.03;5074458;28;20377;-81
2023/05/30 06:07:45;;;;;;;12.07;4.50;;;;;;;10.22;78.61;102660.97;5072955;28;20057;-81
2023/05/30 06:10:11;;;;;;;15.00;4.87;;;;;;;10.27;78.27;102661.03;5074315;28;20076;-81
2023/05/30 06:12:36;;;;;;;12.03;4.60;;;;;;;10.32;78.31;102665.44;5066743;28;20039;-80
2023/05/30 06:15:02;;;;;;;17.30;5.00;;;;;;;10.34;78.33;102662.84;5073288;28;20027;-81
2023/05/30 06:17:28;;;;;;;13.00;4.37;;;;;;;10.38;79.23;102674.19;5073940;28;20024;-80
2023/05/30 06:19:54;;;;;;;12.65;4.43;;;;;;;10.45;77.89;102660.47;5073756;28;20048;-82
2023/05/30 06:22:19;;;;;;;11.07;4.20;;;;;;;10.58;77.73;102667.59;5073091;28;20060;-78
2023/05/30 06:24:46;;;;;;;9.57;3.67;;;;;;;10.73;77.08;102663.44;5070320;28;20743;-80
2023/05/30 06:27:11;;;;;;;;;;;;;;;10.78;75.76;102672.16;5053860;28;20457;-81
2023/05/30 06:29:37;;;;;;;13.03;5.00;;;;;;;10.68;75.68;102649.53;5052883;28;19920;-83
2023/05/30 06:32:02;;;;;;;10.77;4.43;;;;;;;10.81;75.99;102665.28;5054034;28;20098;-83
2023/05/30 06:34:27;;;;;;;10.90;4.13;;;;;;;10.87;75.74;102667.09;5053628;28;20036;-80
2023/05/30 06:36:53;;;;;;;10.57;4.63;;;;;;;10.96;75.14;102668.94;5052405;28;20547;-81
2023/05/30 06:39:18;;;;;;;11.20;4.40;;;;;;;10.96;74.51;102650.75;5053537;28;20029;-81
2023/05/30 06:41:44;;;;;;;16.50;4.77;;;;;;;11.11;73.95;102666.50;5053204;28;20029;-79
2023/05/30 06:44:10;;;;;;;11.13;4.22;;;;;;;11.25;73.34;102658.00;5052997;28;20021;-81
2023/05/30 06:46:35;;;;;;;9.47;4.30;;;;;;;11.41;73.38;102662.53;5053337;28;20101;-78
2023/05/30 06:49:01;;;;;;;9.37;4.20;;;;;;;11.61;72.07;102666.16;5053454;28;20476;-81
2023/05/30 06:51:26;;;;;;;8.43;3.93;;;;;;;11.76;71.67;102673.25;5053186;28;20021;-86
2023/05/30 06:53:52;;;;;;;14.93;5.57;;;;;;;11.30;71.26;102678.84;5053795;28;20086;-85
2023/05/30 06:56:17;;;;;;;13.23;4.90;;;;;;;11.01;72.05;102669.84;5067664;28;20020;-85
2023/05/30 06:58:45;;;;;;;12.90;4.80;;;;;;;11.03;72.43;102673.34;5072333;28;20028;-86
2023/05/30 07:01:11;;;;;;;12.13;4.95;;;;;;;11.12;72.61;102675.19;5072944;28;20116;-86
2023/05/30 07:03:36;;;;;;;14.47;4.97;;;;;;;11.35;72.03;102672.84;5071235;28;20115;-87
2023/05/30 07:06:02;;;;;;;15.30;5.43;;;;;;;11.66;70.69;102680.09;5073059;28;20017;-85
2023/05/30 07:08:27;;;;;;;13.48;5.10;;;;;;;11.79;70.46;102679.34;5072700;28;20086;-86
2023/05/30 07:10:53;;;;;;;12.93;4.87;;;;;;;12.11;71.25;102681.38;5072436;28;20056;-86
2023/05/30 07:13:18;;;;;;;10.83;4.50;;;;;;;12.45;70.38;102684.22;5073024;28;20047;-86
2023/05/30 07:15:47;;;;;;;9.57;4.10;;;;;;;12.75;68.52;102685.25;5070712;28;20024;-86
2023/05/30 07:18:12;;;;;;;8.82;4.07;;;;;;;12.92;68.00;102687.94;5072012;28;20025;-86
2023/05/30 07:20:37;;;;;;;10.37;4.00;;;;;;;12.88;67.62;102678.38;5072644;28;20028;-87
2023/05/30 07:23:02;;;;;;;13.07;5.07;;;;;;;12.71;66.50;102691.31;5072875;28;20508;-86
2023/05/30 07:25:31;;;;;;;9.63;4.37;;;;;;;12.67;67.80;102685.19;5072519;28;20111;-85
2023/05/30 07:27:59;;;;;;;7.22;3.83;;;;;;;12.75;67.89;102687.00;5072576;28;20127;-87
2023/05/30 07:30:24;;;;;;;9.82;4.30;;;;;;;12.73;67.08;102679.16;5072796;28;20020;-86
2023/05/30 07:32:50;;;;;;;7.07;3.73;;;;;;;12.76;67.47;102694.81;5071790;28;20073;-86
2023/05/30 07:35:16;;;;;;;11.95;4.78;;;;;;;12.55;65.99;102694.69;5072997;28;20025;-86
2023/05/30 07:37:41;;;;;;;12.10;4.80;;;;;;;12.60;66.84;102700.81;5072495;28;20086;-86
2023/05/30 07:40:07;;;;;;;9.83;4.80;;;;;;;12.56;66.51;102697.28;5072130;28;20028;-85
2023/05/30 07:42:36;;;;;;;13.40;5.40;;;;;;;12.47;66.05;102699.84;5057221;28;20029;-86
2023/05/30 07:45:02;;;;;;;13.40;5.05;;;;;;;12.41;66.88;102689.41;5056105;28;20025;-86
2023/05/30 07:47:31;;;;;;;13.52;5.22;;;;;;;12.53;66.23;102694.69;5071905;28;20423;-85
2023/05/30 07:49:56;;;;;;;15.65;5.70;;;;;;;12.65;65.81;102702.59;5072856;28;20071;-87
2023/05/30 07:52:21;;;;;;;13.53;5.17;;;;;;;12.85;66.04;102704.41;5071998;28;20028;-85
2023/05/30 07:54:48;;;;;;;14.20;5.40;;;;;;;13.00;66.06;102697.53;5071862;28;20092;-86
2023/05/30 07:57:13;;;;;;;11.55;5.03;;;;;;;13.21;64.41;102688.91;5072985;28;20020;-86
2023/05/30 07:59:41;;;;;;;10.37;4.73;;;;;;;13.46;64.17;102686.41;5071893;28;20527;-88
2023/05/30 08:02:06;;;;;;;7.82;4.15;;;;;;;13.58;64.33;102689.91;5072648;28;20033;-85
2023/05/30 08:04:32;;;;;;;10.87;4.83;;;;;;;13.83;63.98;102687.31;5072411;28;20484;-88
2023/05/30 08:06:57;;;;;;;8.50;3.90;;;;;;;14.08;64.18;102681.22;5048403;28;20144;-86
2023/05/30 08:09:22;;;;;;;10.73;4.30;;;;;;;14.38;62.09;102685.56;5052149;28;20082;-89
2023/05/30 08:11:47;;;;;;;13.27;4.40;;;;;;;14.51;61.45;102679.44;5052324;28;20065;-88
2023/05/30 08:14:13;;;;;;;9.77;4.20;;;;;;;14.73;61.22;102675.94;5052553;28;20038;-88
2023/05/30 08:16:39;;;;;;;9.53;4.20;;;;;;;14.76;60.78;102670.66;5053989;28;20029;-89
2023/05/30 08:19:04;;;;;;;9.00;3.97;;;;;;;14.70;61.77;102668.09;5051187;28;20025;-87
2023/05/30 08:21:31;;;;;;;11.53;4.13;;;;;;;14.80;59.07;102675.03;5051966;28;20060;-88
2023/05/30 08:23:57;;;;;;;10.00;4.40;;;;;;;14.66;59.71;102681.13;5052864;28;20075;-88
2023/05/30 08:26:24;;;;;;;10.57;4.37;;;;;;;14.59;59.93;102679.41;5052583;28;20024;-87
2023/05/30 08:28:51;;;;;;;9.93;4.22;;;;;;;14.56;58.34;102681.19;5051882;28;20071;-88
2023/05/30 08:31:16;;;;;;;10.88;4.30;;;;;;;14.43;59.39;102675.09;5065719;28;20381;-87
2023/05/30 08:33:41;;;;;;;11.43;4.73;;;;;;;14.58;59.36;102679.44;5072314;28;20021;-91
2023/05/30 08:36:09;;;;;;;10.63;4.90;;;;;;;14.47;59.18;102672.47;5071742;28;20017;-86
2023/05/30 08:38:37;;;;;;;12.05;4.95;;;;;;;14.21;59.25;102673.41;5071936;28;20027;-82
2023/05/30 08:41:02;;;;;;;8.65;4.22;;;;;;;14.31;60.53;102669.00;5065766;22;20053;-88
2023/05/30 08:43:28;;;;;;;12.30;5.17;;;;;;;14.29;59.95;102665.56;5031807;28;20022;-87
2023/05/30 08:45:54;;;;;;;13.60;5.40;;;;;;;14.05;58.51;102669.94;5033072;28;20029;-86
2023/05/30 08:48:21;;;;;;;10.35;4.80;;;;;;;14.16;60.12;102663.84;5032631;28;20359;-89
2023/05/30 08:50:47;;;;;;;10.98;4.60;;;;;;;14.20;59.35;102661.22;5031652;28;20555;-87
2023/05/30 08:53:13;;;;;;;10.32;4.75;;;;;;;14.43;59.36;102662.91;5032697;28;20113;-88
2023/05/30 08:55:43;;;;;;;9.90;4.07;;;;;;;14.56;60.18;102662.88;5032550;28;20034;-88
2023/05/30 08:58:25;;;;;;;5.55;3.35;;;;;;;14.89;60.59;102654.06;5032893;28;20032;-87
2023/05/30 09:00:52;;;;;;;6.10;3.30;;;;;;;15.21;58.35;102647.81;5032561;28;20095;-87
2023/05/30 09:03:18;;;;;;;12.75;5.30;;;;;;;15.26;56.87;102651.28;5034451;28;20026;-87
2023/05/30 09:05:45;;;;;;;9.40;4.45;;;;;;;15.46;59.22;102654.66;5035781;28;20018;-87
2023/05/30 09:08:12;;;;;;;11.98;5.30;;;;;;;15.40;56.57;102648.56;5035589;28;20029;-87
2023/05/30 09:10:41;;;;;;;11.90;4.75;;;;;;;15.43;57.58;102651.16;5034466;28;20116;-84
2023/05/30 09:13:06;;;;;;;13.75;5.40;;;;;;;15.43;55.40;102651.16;5035253;28;20028;-84
2023/05/30 09:15:32;;;;;;;10.30;4.90;;;;;;;15.59;56.97;102649.31;5041712;28;20029;-84
2023/05/30 09:17:57;;;;;;;11.83;5.70;;;;;;;15.51;56.09;102642.38;5054029;28;20091;-84
2023/05/30 09:20:22;;;;;;;11.10;4.50;;;;;;;15.63;57.16;102644.91;5055896;28;20521;-83
2023/05/30 09:22:48;;;;;;;8.20;3.93;;;;;;;15.92;57.65;102635.09;5055586;28;20137;-87
2023/05/30 09:25:17;;;;;;;15.03;5.77;;;;;;;15.83;53.62;102642.13;5054986;28;20017;-85
2023/05/30 09:27:48;;;;;;;13.52;5.68;;;;;;;15.51;55.57;102635.41;5054662;28;20033;-84
2023/05/30 09:30:14;;;;;;;8.32;4.20;;;;;;;15.82;56.00;102640.41;5055258;28;20021;-85
2023/05/30 09:32:39;;;;;;;14.10;5.75;;;;;;;15.81;53.99;102637.81;5054181;28;20036;-84
2023/05/30 09:35:07;;;;;;;11.80;5.30;;;;;;;15.78;53.55;102635.19;5054745;28;20029;-83
2023/05/30 09:37:41;;;;;;;13.82;5.50;;;;;;;15.72;54.10;102634.34;5054446;28;20104;-86
2023/05/30 09:40:11;;;;;;;14.35;6.10;;;;;;;15.59;53.53;102636.22;5054272;28;20036;-84
2023/05/30 09:42:46;;;;;;;16.55;6.13;;;;;;;15.50;54.44;102633.69;5054551;28;20061;-84
2023/05/30 09:45:16;;;;;;;11.63;5.30;;;;;;;15.78;54.73;102633.44;5050334;28;20026;-86
2023/05/30 09:47:44;;;;;;;12.02;5.20;;;;;;;16.11;54.58;102634.03;5027527;28;20129;-85
2023/05/30 09:50:12;;;;;;;11.57;5.00;;;;;;;16.49;52.52;102630.16;5033505;28;20057;-85
2023/05/30 09:52:38;;;;;;;15.05;6.32;;;;;;;16.59;51.79;102627.41;5032872;28;20067;-85
2023/05/30 09:55:06;;;;;;;14.35;5.75;;;;;;;16.64;52.30;102630.88;5033586;28;20120;-86
2023/05/30 09:57:36;;;;;;;14.45;5.88;;;;;;;16.66;51.22;102618.59;5034493;28;20037;-86
2023/05/30 10:00:10;;;;;;;11.30;4.78;;;;;;;16.91;52.50;102607.78;5032530;28;20104;-86
2023/05/30 10:02:38;;;;;;;11.20;5.10;;;;;;;17.04;52.76;102622.50;5034627;28;20474;-89
2023/05/30 10:05:04;;;;;;;12.70;5.35;;;;;;;17.15;50.45;102604.00;5036272;28;20032;-87
2023/05/30 10:07:31;;;;;;;13.20;6.03;;;;;;;16.96;51.83;102609.47;5033154;28;20482;-89
2023/05/30 10:09:57;;;;;;;13.48;5.80;;;;;;;17.15;52.79;102609.22;5034546;28;20021;-88
2023/05/30 10:12:23;;;;;;;12.82;5.60;;;;;;;17.05;51.52;102608.50;5034684;28;20024;-89
2023/05/30 10:14:51;;;;;;;11.02;4.65;;;;;;;17.26;51.26;102615.19;5033781;28;20040;-90
2023/05/30 10:17:20;;;;;;;11.23;5.22;;;;;;;17.40;50.77;102608.84;5035019;28;20041;-89
2023/05/30 10:19:58;;;;;;;12.07;5.15;;;;;;;17.57;51.12;102605.94;5034651;28;20030;-89
2023/05/30 10:22:27;;;;;;;15.82;5.40;;;;;;;17.74;48.81;102613.53;5034399;28;20021;-89
2023/05/30 10:24:53;;;;;;;13.98;6.38;;;;;;;17.42;48.24;102620.19;5034604;28;20462;-87
2023/05/30 10:27:27;;;;;;;12.60;5.60;;;;;;;17.68;49.46;102605.75;5034179;28;20021;-89
2023/05/30 10:30:03;;;;;;;15.77;6.10;;;;;;;17.62;48.75;102616.38;5034171;28;20378;-89
2023/05/30 10:32:33;;;;;;;12.57;5.30;;;;;;;17.67;48.77;102604.91;5034374;28;20025;-88
2023/05/30 10:35:13;;;;;;;10.50;5.25;;;;;;;17.83;48.97;102608.13;5034453;28;20021;-90
2023/05/30 10:37:41;;;;;;;11.57;5.30;;;;;;;17.98;49.90;102609.66;5034273;28;20022;-89
2023/05/30 10:40:33;;;;;;;9.02;4.20;;;;;;;18.25;50.11;102602.13;5034641;28;20030;-90
2023/05/30 10:43:16;;;;;;;7.47;3.92;;;;;;;18.62;49.14;102593.50;5033739;28;20116;-90
2023/05/30 10:45:56;;;;;;;13.18;5.25;;;;;;;18.80;47.85;102599.28;5035198;28;20032;-90
2023/05/30 10:48:29;;;;;;;13.10;5.18;;;;;;;18.73;45.98;102589.75;5033667;28;20029;-88
2023/05/30 10:50:59;;;;;;;11.52;4.60;;;;;;;18.73;47.64;102593.28;5040638;23;20029;-90
2023/05/30 10:53:24;;;;;;;7.43;3.95;;;;;;;19.02;47.78;102588.28;5034205;28;20049;-88
2023/05/30 10:55:50;;;;;;;5.10;3.17;;;;;;;19.26;48.22;102589.47;5033789;28;20029;-91
2023/05/30 10:58:37;;;;;;;11.13;5.10;;;;;;;19.15;45.19;102589.72;5089447;22;20052;-89
2023/05/30 11:01:26;;;;;;;10.27;4.57;;;;;;;19.12;45.03;102585.38;5034058;28;20044;-89
2023/05/30 11:04:00;;;;;;;13.98;5.63;;;;;;;18.87;45.95;102573.66;5032916;28;20105;-89
2023/05/30 11:06:34;;;;;;;9.93;4.30;;;;;;;19.09;46.90;102574.06;5034305;28;20021;-87
2023/05/30 11:09:08;;;;;;;11.20;4.38;;;;;;;19.35;47.60;102568.16;5041121;28;20025;-83
2023/05/30 11:11:45;;;;;;;5.78;3.30;;;;;;;19.64;47.33;102571.84;5052360;28;20087;-84
2023/05/30 11:14:12;;;;;;;8.32;3.70;;;;;;;19.93;45.81;102570.22;5053088;28;20500;-85
2023/05/30 11:16:56;;;;;;;12.40;5.50;;;;;;;19.64;43.76;102576.25;5041051;28;20029;-83
2023/05/30 11:19:25;;;;;;;14.73;6.00;;;;;;;18.94;44.29;102567.41;5032721;28;20017;-83
2023/05/30 11:22:08;;;;;;;13.80;5.50;;;;;;;19.07;45.22;102571.50;5032767;28;20390;-83
2023/05/30 11:24:36;;;;;;;11.95;4.97;;;;;;;19.06;46.26;102553.97;5031675;28;20025;-84
2023/05/30 11:27:07;;;;;;;7.68;3.55;;;;;;;19.43;45.78;102558.31;5031963;28;20022;-83